createdAt,value
2022-07-29T00:00:47.795Z,26.88
2022-07-29T00:03:15.247Z,26.46
2022-07-29T00:05:42.676Z,26.61
2022-07-29T00:08:13.386Z,26.94
2022-07-29T00:10:48.793Z,27.16
2022-07-29T00:13:16.009Z,27.11
2022-07-29T00:15:43.277Z,27.09
2022-07-29T00:18:10.514Z,26.62
2022-07-29T00:20:38.573Z,26.74
2022-07-29T00:23:05.802Z,26.63
2022-07-29T00:25:32.977Z,26.83
2022-07-29T00:28:01.123Z,26.98
2022-07-29T00:30:28.301Z,26.90
2022-07-29T00:33:00.523Z,27.16
2022-07-29T00:35:45.999Z,27.44
2022-07-29T00:38:13.952Z,27.43
2022-07-29T00:40:43.277Z,27.32
2022-07-29T00:43:12.091Z,27.63
2022-07-29T00:45:40.430Z,27.28
2022-07-29T00:48:09.686Z,27.18
2022-07-29T00:50:37.409Z,26.68
2022-07-29T00:53:05.376Z,26.80
2022-07-29T00:55:32.626Z,26.55
2022-07-29T00:57:59.904Z,26.44
2022-07-29T01:00:42.762Z,26.84
2022-07-29T01:03:12.925Z,27.11
2022-07-29T01:05:50.638Z,26.98
2022-07-29T01:08:18.935Z,25.65
2022-07-29T01:10:46.088Z,26.20
2022-07-29T01:13:13.320Z,26.67
2022-07-29T01:15:55.442Z,27.06
2022-07-29T01:18:29.803Z,26.78
2022-07-29T01:21:06.620Z,26.47
2022-07-29T01:23:36.966Z,26.78
2022-07-29T01:26:22.397Z,26.79
2022-07-29T01:28:52.598Z,26.52
2022-07-29T01:31:42.584Z,26.96
2022-07-29T01:34:28.558Z,27.17
2022-07-29T01:37:02.626Z,26.17
2022-07-29T01:39:34.125Z,26.47
2022-07-29T01:42:09.666Z,26.78
2022-07-29T01:44:39.300Z,26.41
2022-07-29T01:47:12.616Z,26.30
2022-07-29T01:49:40.910Z,26.60
2022-07-29T01:52:20.326Z,26.95
2022-07-29T01:54:52.675Z,26.90
2022-07-29T01:57:20.135Z,27.01
2022-07-29T01:59:47.983Z,27.08
2022-07-29T02:02:15.460Z,26.95
2022-07-29T02:04:42.775Z,26.77
2022-07-29T02:07:11.057Z,26.72
2022-07-29T02:09:38.847Z,26.73
2022-07-29T02:12:06.176Z,26.87
2022-07-29T02:14:34.791Z,26.93
2022-07-29T02:17:01.996Z,26.82
2022-07-29T02:19:29.263Z,26.88
2022-07-29T02:21:56.840Z,27.11
2022-07-29T02:24:24.649Z,26.88
2022-07-29T02:26:52.401Z,26.93
2022-07-29T02:29:21.653Z,26.64
2022-07-29T02:31:48.882Z,26.51
2022-07-29T02:34:16.370Z,26.78
2022-07-29T02:36:49.524Z,26.89
2022-07-29T02:39:16.852Z,26.93
2022-07-29T02:41:45.394Z,27.07
2022-07-29T02:44:15.436Z,27.14
2022-07-29T02:46:48.194Z,27.10
2022-07-29T02:49:34.462Z,27.05
2022-07-29T02:52:03.216Z,26.83
2022-07-29T02:54:47.341Z,26.83
2022-07-29T02:57:30.092Z,26.80
2022-07-29T02:59:58.878Z,26.87
2022-07-29T03:02:26.893Z,26.83
2022-07-29T03:04:54.120Z,26.89
2022-07-29T03:07:21.316Z,26.78
2022-07-29T03:09:48.590Z,26.19
2022-07-29T03:12:15.837Z,26.28
2022-07-29T03:14:43.587Z,25.74
2022-07-29T03:17:10.722Z,26.00
2022-07-29T03:19:38.457Z,26.24
2022-07-29T03:22:05.802Z,26.40
2022-07-29T03:24:33.867Z,25.84
2022-07-29T03:27:01.284Z,26.05
2022-07-29T03:29:33.762Z,25.78
2022-07-29T03:32:08.310Z,26.03
2022-07-29T03:34:37.156Z,25.57
2022-07-29T03:37:06.908Z,25.73
2022-07-29T03:39:40.493Z,26.13
2022-07-29T03:42:08.831Z,26.11
2022-07-29T03:44:36.003Z,25.97
2022-07-29T03:47:03.200Z,26.14
2022-07-29T03:49:30.360Z,26.26
2022-07-29T03:51:57.530Z,26.51
2022-07-29T03:54:24.756Z,26.18
2022-07-29T03:56:53.018Z,26.32
2022-07-29T03:59:20.855Z,26.57
2022-07-29T04:01:48.137Z,26.53
2022-07-29T04:04:15.657Z,26.58
2022-07-29T04:06:44.027Z,26.61
2022-07-29T04:09:11.282Z,26.52
2022-07-29T04:12:02.587Z,26.31
2022-07-29T04:14:31.384Z,25.91
2022-07-29T04:16:58.626Z,25.97
2022-07-29T04:19:25.795Z,25.94
2022-07-29T04:21:53.090Z,26.10
2022-07-29T04:24:20.531Z,26.01
2022-07-29T04:26:47.995Z,25.66
2022-07-29T04:29:15.434Z,25.89
2022-07-29T04:31:42.951Z,25.87
2022-07-29T04:34:10.377Z,26.08
2022-07-29T04:36:37.515Z,26.42
2022-07-29T04:39:04.806Z,26.08
2022-07-29T04:41:33.106Z,26.21
2022-07-29T04:44:05.936Z,26.35
2022-07-29T04:46:35.360Z,25.82
2022-07-29T04:49:03.456Z,26.15
2022-07-29T04:51:30.784Z,26.00
2022-07-29T04:53:57.967Z,25.16
2022-07-29T04:56:25.170Z,25.12
2022-07-29T04:58:52.361Z,24.98
2022-07-29T05:01:19.781Z,25.39
2022-07-29T05:03:47.060Z,24.84
2022-07-29T05:06:14.236Z,25.19
2022-07-29T05:08:41.856Z,25.66
2022-07-29T05:11:11.365Z,25.30
2022-07-29T05:13:45.324Z,25.74
2022-07-29T05:16:14.799Z,26.05
2022-07-29T05:18:43.088Z,26.42
2022-07-29T05:21:10.517Z,26.62
2022-07-29T05:23:37.710Z,26.84
2022-07-29T05:26:04.944Z,26.59
2022-07-29T05:28:36.068Z,26.09
2022-07-29T05:31:03.594Z,26.20
2022-07-29T05:33:35.418Z,26.20
2022-07-29T05:36:06.789Z,26.28
2022-07-29T05:38:34.926Z,26.14
2022-07-29T05:41:02.229Z,26.16
2022-07-29T05:43:32.483Z,26.24
2022-07-29T05:45:59.778Z,26.56
2022-07-29T05:48:27.083Z,26.57
2022-07-29T05:50:54.278Z,26.11
2022-07-29T05:53:21.574Z,25.89
2022-07-29T05:55:49.251Z,25.97
2022-07-29T05:58:16.538Z,26.22
2022-07-29T06:00:43.721Z,26.04
2022-07-29T06:06:46.709Z,25.83
2022-07-29T06:09:14.391Z,25.57
2022-07-29T06:11:41.679Z,25.69
2022-07-29T06:14:08.919Z,25.90
2022-07-29T06:16:36.208Z,25.84
2022-07-29T06:19:03.515Z,25.47
2022-07-29T06:21:30.807Z,25.69
2022-07-29T06:23:58.046Z,25.76
2022-07-29T06:26:30.367Z,25.59
2022-07-29T06:28:58.756Z,25.96
2022-07-29T06:31:25.984Z,26.00
2022-07-29T06:33:54.678Z,26.46
2022-07-29T06:36:26.558Z,26.14
2022-07-29T06:38:55.157Z,25.79
2022-07-29T06:41:24.763Z,25.84
2022-07-29T06:43:55.341Z,26.10
2022-07-29T06:46:24.396Z,26.24
2022-07-29T06:48:53.323Z,26.36
2022-07-29T06:51:41.154Z,26.15
2022-07-29T06:54:08.478Z,26.22
2022-07-29T06:56:40.252Z,26.82
2022-07-29T06:59:08.508Z,26.83
2022-07-29T07:01:39.538Z,26.89
2022-07-29T07:04:06.918Z,26.95
2022-07-29T07:06:34.102Z,26.74
2022-07-29T07:09:01.538Z,26.69
2022-07-29T07:11:28.806Z,26.65
2022-07-29T07:14:00.682Z,27.01
2022-07-29T07:16:30.189Z,26.97
2022-07-29T07:18:57.810Z,26.95
2022-07-29T07:21:25.083Z,27.18
2022-07-29T07:23:52.291Z,26.96
2022-07-29T07:26:19.443Z,27.02
2022-07-29T07:28:46.616Z,27.55
2022-07-29T07:31:13.849Z,27.66
2022-07-29T07:33:41.035Z,27.70
2022-07-29T07:36:08.313Z,27.90
2022-07-29T07:38:35.492Z,27.82
2022-07-29T07:41:02.743Z,27.85
2022-07-29T07:43:32.515Z,27.45
2022-07-29T07:45:59.725Z,27.51
2022-07-29T07:48:30.045Z,27.58
2022-07-29T07:50:57.310Z,27.84
2022-07-29T07:53:24.460Z,28.12
2022-07-29T07:58:41.362Z,28.25
2022-07-29T08:01:09.043Z,28.29
2022-07-29T08:03:36.456Z,28.25
2022-07-29T08:06:04.077Z,28.32
2022-07-29T08:08:31.327Z,28.63
2022-07-29T08:11:00.621Z,28.26
2022-07-29T08:13:31.262Z,28.11
2022-07-29T08:16:00.711Z,28.56
2022-07-29T08:18:31.882Z,28.68
2022-07-29T08:20:59.369Z,28.42
2022-07-29T08:23:46.074Z,28.44
2022-07-29T08:26:16.149Z,28.46
2022-07-29T08:28:47.065Z,28.33
2022-07-29T08:31:14.593Z,28.70
2022-07-29T08:33:42.088Z,28.85
2022-07-29T08:36:09.528Z,29.00
2022-07-29T08:38:53.982Z,29.08
2022-07-29T08:41:22.530Z,29.53
2022-07-29T08:43:50.137Z,29.02
2022-07-29T08:46:18.221Z,29.08
2022-07-29T08:48:45.725Z,29.54
2022-07-29T08:51:14.228Z,29.58
2022-07-29T08:53:52.855Z,29.60
2022-07-29T08:56:20.129Z,29.80
2022-07-29T08:58:50.665Z,29.97
2022-07-29T09:01:23.020Z,30.42
2022-07-29T09:04:03.013Z,30.45
2022-07-29T09:06:34.112Z,30.05
2022-07-29T09:09:01.393Z,30.29
2022-07-29T09:11:29.306Z,30.44
2022-07-29T09:13:56.542Z,30.28
2022-07-29T09:16:51.016Z,30.56
2022-07-29T09:19:20.902Z,30.62
2022-07-29T09:22:00.530Z,30.84
2022-07-29T09:24:40.572Z,31.18
2022-07-29T09:27:30.475Z,30.39
2022-07-29T09:30:02.591Z,30.88
2022-07-29T09:32:31.029Z,30.98
2022-07-29T09:35:17.262Z,30.25
2022-07-29T09:37:44.875Z,30.43
2022-07-29T09:40:16.906Z,30.72
2022-07-29T09:42:44.397Z,30.74
2022-07-29T09:45:12.412Z,31.01
2022-07-29T09:47:45.991Z,30.88
2022-07-29T09:50:13.365Z,30.64
2022-07-29T09:52:48.026Z,30.57
2022-07-29T09:55:18.460Z,31.05
2022-07-29T09:57:47.561Z,30.53
2022-07-29T10:00:16.504Z,30.66
2022-07-29T10:02:47.247Z,30.69
2022-07-29T10:05:21.817Z,30.35
2022-07-29T10:07:53.629Z,30.44
2022-07-29T10:10:28.852Z,30.48
2022-07-29T10:12:56.054Z,31.05
2022-07-29T10:15:24.844Z,31.41
2022-07-29T10:17:52.701Z,31.31
2022-07-29T10:20:20.792Z,31.31
2022-07-29T10:22:53.740Z,31.34
2022-07-29T10:25:21.344Z,30.93
2022-07-29T10:27:48.865Z,31.37
2022-07-29T10:30:16.903Z,31.54
2022-07-29T10:32:54.359Z,31.27
2022-07-29T10:35:21.929Z,31.53
2022-07-29T10:37:55.260Z,31.48
2022-07-29T10:40:59.796Z,31.93
2022-07-29T10:43:29.899Z,32.73
2022-07-29T10:46:00.458Z,32.28
2022-07-29T10:48:27.843Z,32.10
2022-07-29T10:51:03.973Z,32.23
2022-07-29T10:53:54.030Z,32.42
2022-07-29T10:56:28.031Z,32.76
2022-07-29T10:59:14.212Z,33.18
2022-07-29T11:01:41.506Z,32.74
2022-07-29T11:04:17.933Z,33.49
2022-07-29T11:07:04.209Z,33.46
2022-07-29T11:09:37.502Z,33.91
2022-07-29T11:12:24.031Z,33.00
2022-07-29T11:14:59.993Z,33.16
2022-07-29T11:17:27.377Z,33.79
2022-07-29T11:20:23.734Z,33.14
2022-07-29T11:22:51.250Z,34.33
2022-07-29T11:25:18.925Z,34.46
2022-07-29T11:28:10.118Z,36.08
2022-07-29T11:30:50.066Z,36.68
2022-07-29T11:33:54.815Z,34.85
2022-07-29T11:39:26.504Z,34.52
2022-07-29T11:42:28.167Z,35.22
2022-07-29T11:45:06.633Z,36.40
2022-07-29T11:47:48.948Z,36.60
2022-07-29T11:50:18.336Z,36.65
2022-07-29T11:52:54.207Z,37.54
2022-07-29T11:55:23.996Z,36.13
2022-07-29T11:58:03.555Z,36.71
2022-07-29T12:00:33.069Z,38.03
2022-07-29T12:03:01.178Z,39.52
2022-07-29T12:05:48.402Z,39.69
2022-07-29T12:08:20.755Z,39.40
2022-07-29T12:10:48.532Z,39.07
2022-07-29T12:13:17.288Z,40.15
2022-07-29T12:15:59.963Z,38.16
2022-07-29T12:18:50.337Z,37.53
2022-07-29T12:21:17.645Z,38.06
2022-07-29T12:23:53.063Z,39.36
2022-07-29T12:26:25.505Z,39.31
2022-07-29T12:28:53.149Z,38.08
2022-07-29T12:31:43.021Z,35.77
2022-07-29T12:34:09.162Z,35.52
2022-07-29T12:36:37.271Z,36.79
2022-07-29T12:39:05.018Z,37.48
2022-07-29T12:41:32.597Z,36.92
2022-07-29T12:43:59.835Z,37.56
2022-07-29T12:46:27.231Z,37.78
2022-07-29T12:48:58.448Z,36.90
2022-07-29T12:51:32.757Z,37.24
2022-07-29T12:54:18.161Z,37.22
2022-07-29T12:56:45.850Z,38.48
2022-07-29T12:59:13.545Z,38.27
2022-07-29T13:01:40.700Z,38.03
2022-07-29T13:04:10.335Z,38.53
2022-07-29T13:06:45.910Z,38.87
2022-07-29T13:09:17.030Z,40.29
2022-07-29T13:11:51.180Z,40.63
2022-07-29T13:14:34.360Z,39.97
2022-07-29T13:17:03.042Z,39.90
2022-07-29T13:19:38.759Z,39.79
2022-07-29T13:22:06.114Z,40.32
2022-07-29T13:24:33.519Z,38.55
2022-07-29T13:27:00.714Z,38.52
2022-07-29T13:29:31.528Z,39.14
2022-07-29T13:31:59.374Z,41.15
2022-07-29T13:34:26.977Z,40.80
2022-07-29T13:36:54.485Z,39.56
2022-07-29T13:39:21.640Z,40.28
2022-07-29T13:41:48.804Z,40.87
2022-07-29T13:44:16.408Z,41.46
2022-07-29T13:46:46.592Z,41.46
2022-07-29T13:49:13.855Z,41.21
2022-07-29T13:51:41.103Z,39.68
2022-07-29T13:54:08.277Z,38.61
2022-07-29T13:56:35.473Z,37.71
2022-07-29T13:59:02.734Z,37.84
2022-07-29T14:01:31.372Z,37.13
2022-07-29T14:03:58.723Z,36.66
2022-07-29T14:06:25.976Z,35.55
2022-07-29T14:08:53.190Z,35.25
2022-07-29T14:11:20.383Z,34.77
2022-07-29T14:13:47.617Z,34.74
2022-07-29T14:16:16.181Z,33.91
2022-07-29T14:18:43.597Z,33.63
2022-07-29T14:21:10.781Z,33.59
2022-07-29T14:23:38.006Z,33.25
2022-07-29T14:26:15.914Z,32.63
2022-07-29T14:28:49.200Z,32.39
2022-07-29T14:31:16.683Z,32.82
2022-07-29T14:33:44.046Z,32.59
2022-07-29T14:36:13.580Z,32.61
2022-07-29T14:38:41.529Z,32.56
2022-07-29T14:41:08.995Z,32.61
2022-07-29T14:43:36.216Z,32.74
2022-07-29T14:46:08.055Z,32.63
2022-07-29T14:48:36.091Z,32.40
2022-07-29T14:51:06.656Z,32.32
2022-07-29T14:53:33.811Z,32.39
2022-07-29T14:56:15.271Z,32.35
2022-07-29T14:58:51.495Z,32.31
2022-07-29T15:01:19.143Z,32.34
2022-07-29T15:03:46.807Z,31.96
2022-07-29T15:06:13.987Z,31.93
2022-07-29T15:08:41.197Z,31.84
2022-07-29T15:11:08.807Z,31.94
2022-07-29T15:13:36.057Z,32.04
2022-07-29T15:16:03.472Z,31.80
2022-07-29T15:18:31.044Z,31.89
2022-07-29T15:21:01.420Z,31.99
2022-07-29T15:23:28.897Z,31.97
2022-07-29T15:25:56.197Z,31.81
2022-07-29T15:28:23.445Z,31.75
2022-07-29T15:30:50.610Z,31.61
2022-07-29T15:33:17.914Z,31.67
2022-07-29T15:35:45.121Z,31.62
2022-07-29T15:38:12.318Z,31.52
2022-07-29T15:40:42.117Z,31.56
2022-07-29T15:43:09.367Z,31.73
2022-07-29T15:45:40.837Z,31.74
2022-07-29T15:48:09.770Z,31.61
2022-07-29T15:50:47.069Z,31.60
2022-07-29T15:53:14.598Z,31.63
2022-07-29T15:55:42.732Z,31.75
2022-07-29T15:58:14.021Z,31.71
2022-07-29T16:00:41.398Z,31.52
2022-07-29T16:03:08.622Z,31.57
2022-07-29T16:06:14.437Z,31.11
2022-07-29T16:08:41.720Z,30.91
2022-07-29T16:11:08.920Z,30.89
2022-07-29T16:13:36.106Z,30.73
2022-07-29T16:16:03.679Z,30.47
2022-07-29T16:18:30.865Z,30.25
2022-07-29T16:20:58.293Z,29.69
2022-07-29T16:23:25.515Z,29.64
2022-07-29T16:26:01.105Z,29.64
2022-07-29T16:28:29.010Z,29.61
2022-07-29T16:30:57.202Z,29.67
2022-07-29T16:33:24.648Z,29.42
2022-07-29T16:35:52.364Z,29.14
2022-07-29T16:38:19.522Z,28.93
2022-07-29T16:40:47.099Z,28.66
2022-07-29T16:43:14.261Z,28.75
2022-07-29T16:45:45.308Z,28.85
2022-07-29T16:48:14.373Z,28.58
2022-07-29T16:50:43.785Z,28.56
2022-07-29T16:53:11.123Z,28.85
2022-07-29T16:55:38.507Z,28.87
2022-07-29T16:58:09.646Z,29.01
2022-07-29T17:00:38.390Z,29.27
2022-07-29T17:03:05.765Z,29.12
2022-07-29T17:05:54.035Z,29.15
2022-07-29T17:08:21.964Z,29.34
2022-07-29T17:10:51.238Z,29.58
2022-07-29T17:13:18.819Z,29.59
2022-07-29T17:15:46.227Z,29.83
2022-07-29T17:18:31.987Z,29.28
2022-07-29T17:20:59.316Z,29.22
2022-07-29T17:23:26.985Z,29.00
2022-07-29T17:25:54.172Z,28.96
2022-07-29T17:28:21.361Z,29.19
2022-07-29T17:30:48.658Z,29.13
2022-07-29T17:33:15.835Z,28.95
2022-07-29T17:36:01.825Z,28.74
2022-07-29T17:38:29.012Z,28.79
2022-07-29T17:40:56.451Z,29.12
2022-07-29T17:43:23.604Z,28.71
2022-07-29T17:45:52.077Z,28.40
2022-07-29T17:48:19.792Z,28.56
2022-07-29T17:50:47.487Z,28.54
2022-07-29T17:53:16.235Z,28.88
2022-07-29T17:55:49.137Z,28.78
2022-07-29T17:58:16.364Z,29.18
2022-07-29T18:00:43.800Z,29.00
2022-07-29T18:03:11.060Z,29.18
2022-07-29T18:05:38.344Z,29.13
2022-07-29T18:08:06.242Z,29.07
2022-07-29T18:10:33.509Z,29.29
2022-07-29T18:13:00.732Z,29.34
2022-07-29T18:15:27.968Z,29.55
2022-07-29T18:17:57.552Z,29.53
2022-07-29T18:20:25.932Z,29.45
2022-07-29T18:22:53.261Z,29.62
2022-07-29T18:25:20.857Z,29.46
2022-07-29T18:27:48.058Z,29.57
2022-07-29T18:30:38.220Z,29.50
2022-07-29T18:33:20.800Z,29.03
2022-07-29T18:35:49.528Z,28.64
2022-07-29T18:38:16.917Z,28.76
2022-07-29T18:40:45.659Z,28.72
2022-07-29T18:43:13.253Z,28.79
2022-07-29T18:45:40.525Z,28.67
2022-07-29T18:48:12.717Z,28.67
2022-07-29T18:50:40.871Z,28.95
2022-07-29T18:53:08.163Z,29.12
2022-07-29T18:55:35.364Z,29.14
2022-07-29T18:58:03.229Z,29.07
2022-07-29T19:00:30.632Z,28.93
2022-07-29T19:02:58.119Z,29.17
2022-07-29T19:05:25.509Z,29.50
2022-07-29T19:07:54.763Z,28.56
2022-07-29T19:10:22.223Z,27.26
2022-07-29T19:12:49.489Z,26.98
2022-07-29T19:15:52.262Z,26.84
2022-07-29T19:18:19.983Z,26.66
2022-07-29T19:20:47.181Z,26.21
2022-07-29T19:23:14.419Z,26.74
2022-07-29T19:25:53.241Z,27.29
2022-07-29T19:28:21.478Z,27.54
2022-07-29T19:30:48.966Z,27.64
2022-07-29T19:33:18.898Z,27.71
2022-07-29T19:35:47.640Z,27.71
2022-07-29T19:38:16.742Z,27.42
2022-07-29T19:40:44.079Z,27.88
2022-07-29T19:43:51.797Z,28.10
2022-07-29T19:45:58.597Z,28.18
2022-07-29T19:48:26.242Z,28.11
2022-07-29T19:50:53.668Z,28.27
2022-07-29T19:53:20.896Z,28.08
2022-07-29T19:55:49.800Z,27.15
2022-07-29T19:58:17.098Z,27.08
2022-07-29T20:00:44.512Z,27.54
2022-07-29T20:03:12.937Z,27.65
2022-07-29T20:05:40.196Z,27.63
2022-07-29T20:08:07.395Z,27.27
2022-07-29T20:10:34.709Z,26.69
2022-07-29T20:13:01.917Z,26.84
2022-07-29T20:15:29.202Z,27.18
2022-07-29T20:17:57.433Z,27.32
2022-07-29T20:20:25.268Z,27.62
2022-07-29T20:22:53.081Z,27.58
2022-07-29T20:25:20.350Z,27.24
2022-07-29T20:27:52.331Z,27.08
2022-07-29T20:30:19.963Z,26.99
2022-07-29T20:32:48.656Z,26.77
2022-07-29T20:35:42.082Z,26.65
2022-07-29T20:38:13.972Z,26.89
2022-07-29T20:40:45.308Z,26.93
2022-07-29T20:43:12.632Z,26.87
2022-07-29T20:45:42.061Z,26.74
2022-07-29T20:48:10.540Z,26.80
2022-07-29T20:50:38.184Z,27.01
2022-07-29T20:53:06.802Z,27.07
2022-07-29T20:55:34.094Z,27.06
2022-07-29T20:58:13.355Z,26.81
2022-07-29T21:00:42.914Z,26.50
2022-07-29T21:03:10.159Z,26.46
2022-07-29T21:05:37.628Z,26.51
2022-07-29T21:08:04.993Z,26.46
2022-07-29T21:10:32.303Z,26.68
2022-07-29T21:13:00.043Z,26.53
2022-07-29T21:15:29.033Z,26.67
2022-07-29T21:18:03.891Z,26.72
2022-07-29T21:20:31.218Z,26.57
2022-07-29T21:23:01.588Z,26.61
2022-07-29T21:25:28.849Z,26.12
2022-07-29T21:28:14.749Z,26.09
2022-07-29T21:30:42.019Z,26.20
2022-07-29T21:33:09.255Z,25.96
2022-07-29T21:36:01.690Z,26.14
2022-07-29T21:38:23.814Z,26.16
2022-07-29T21:40:51.524Z,25.96
2022-07-29T21:43:18.969Z,26.10
2022-07-29T21:45:52.265Z,25.82
2022-07-29T21:48:30.058Z,25.90
2022-07-29T21:50:57.351Z,25.87
2022-07-29T21:53:26.902Z,25.50
2022-07-29T21:55:55.424Z,25.50
2022-07-29T21:58:23.762Z,25.77
2022-07-29T22:00:51.015Z,25.71
2022-07-29T22:03:18.381Z,25.55
2022-07-29T22:05:45.675Z,25.65
2022-07-29T22:08:14.872Z,25.40
2022-07-29T22:10:42.585Z,25.64
2022-07-29T22:13:11.809Z,25.42
2022-07-29T22:15:39.862Z,25.14
2022-07-29T22:18:11.696Z,25.23
2022-07-29T22:20:45.649Z,25.54
2022-07-29T22:23:12.837Z,25.63
2022-07-29T22:25:40.125Z,25.47
2022-07-29T22:28:07.378Z,25.22
2022-07-29T22:30:34.575Z,25.29
2022-07-29T22:33:01.856Z,25.66
2022-07-29T22:35:29.033Z,25.79
2022-07-29T22:37:56.214Z,25.90
2022-07-29T22:40:30.472Z,25.34
2022-07-29T22:42:58.247Z,25.61
2022-07-29T22:45:25.409Z,25.86
2022-07-29T22:47:58.953Z,25.99
2022-07-29T22:50:26.771Z,26.05
2022-07-29T22:52:54.056Z,26.18
2022-07-29T22:55:21.286Z,26.20
2022-07-29T22:57:48.469Z,26.48
2022-07-29T23:00:15.849Z,26.35
2022-07-29T23:02:43.481Z,26.51
2022-07-29T23:05:11.389Z,26.68
2022-07-29T23:07:38.641Z,26.55
2022-07-29T23:10:06.443Z,26.57
2022-07-29T23:12:33.783Z,26.65
2022-07-29T23:15:14.695Z,26.61
2022-07-29T23:17:41.890Z,26.40
2022-07-29T23:20:10.043Z,26.26
2022-07-29T23:22:37.272Z,26.32
2022-07-29T23:25:04.987Z,26.19
2022-07-29T23:27:37.214Z,25.90
2022-07-29T23:30:05.351Z,26.13
2022-07-29T23:32:32.612Z,26.13
2022-07-29T23:34:59.824Z,25.69
2022-07-29T23:37:27.169Z,25.96
2022-07-29T23:39:54.432Z,26.24
2022-07-29T23:42:21.614Z,26.34
2022-07-29T23:44:51.192Z,26.26
2022-07-29T23:47:18.529Z,26.41
2022-07-29T23:49:46.488Z,26.25
2022-07-29T23:52:13.676Z,26.31
2022-07-29T23:54:40.905Z,25.68
2022-07-29T23:57:08.082Z,25.86
2022-07-29T23:59:35.286Z,26.12
